Terminal Aerodrome Forecast
Issued by NWS

Home | Current Version | Previous Version | Graphics & Text | Print | Product List | Glossary On
Versions: 1 2 3 4 5 6 7 8 9 10 11 12 13 14 15 16 17 18 19 20 21 22
000
FTUS43 KICT 240223 AAA
TAFCNU
TAF AMD
KCNU 240223Z 2402/2424 12009G20KT 4SM -SHRA VCTS SCT005 OVC011CB
      TEMPO 2402/2406 2SM +SHRA OVC005
     FM240600 15008KT 4SM -SHRA OVC005
      TEMPO 2406/2410 2SM +SHRA
     FM241000 12007KT 6SM -SHRA OVC005
     FM241400 14008KT 5SM -SHRA OVC008
     FM241800 14009KT P6SM VCTS SCT020 OVC035CB=

USA.gov is the U.S. government's official web portal to all federal, state and local government web resources and services.